Time;durP1;ratioP1;P1;durP2;ratioP2;P2;SDS_P1;SDS_P2;PMS_P1;PMS_P2;Temp;Humidity;BMP_temperature;BMP_pressure;BME280_temperature;BME280_humidity;BME280_pressure;Samples;Min_cycle;Max_cycle;Signal;HPM_P1;HPM_P2
2024/01/12 00:00:17;;;;;;;7.40;3.70;;;;;;;-2.02;81.89;101142.40;109695;1288;22174;-88
2024/01/12 00:03:30;;;;;;;7.70;3.60;;;;;;;-2.00;81.78;101142.18;109737;1287;22248;-88
2024/01/12 00:06:41;;;;;;;7.60;3.90;;;;;;;-2.00;81.72;101147.22;110136;1281;22177;-85
2024/01/12 00:10:30;;;;;;;7.60;4.00;;;;;;;-2.00;81.63;101154.83;110242;1280;22458;-87
2024/01/12 00:13:33;;;;;;;8.90;4.20;;;;;;;-1.95;81.79;101154.17;110364;1275;22120;-87
2024/01/12 00:16:23;;;;;;;8.90;4.20;;;;;;;-1.92;81.75;101159.04;110798;1267;22323;-85
2024/01/12 00:18:50;;;;;;;7.90;3.80;;;;;;;-1.90;81.58;101162.56;110690;1270;22180;-86
2024/01/12 00:21:17;;;;;;;8.20;4.00;;;;;;;-1.86;81.47;101160.20;110650;1275;22275;-86
2024/01/12 00:24:54;;;;;;;7.40;3.60;;;;;;;-1.76;81.44;101156.89;107509;1308;545811;-88
2024/01/12 00:28:13;;;;;;;8.40;3.90;;;;;;;-1.71;81.27;101151.98;107478;1301;558838;-87
2024/01/12 00:31:05;;;;;;;7.50;4.30;;;;;;;-1.69;81.04;101157.28;108788;1286;22555;-86
2024/01/12 00:33:37;;;;;;;7.90;4.30;;;;;;;-1.70;80.67;101153.76;109477;1286;22555;-88
2024/01/12 00:36:24;;;;;;;8.40;3.70;;;;;;;-1.70;80.71;101156.36;108204;1286;22537;-88
2024/01/12 00:39:41;;;;;;;7.50;3.40;;;;;;;-1.77;79.96;101151.52;107076;1286;22538;-87
2024/01/12 00:46:52;;;;;;;7.40;3.50;;;;;;;-1.92;79.89;101134.70;106622;1284;22615;-87
2024/01/12 00:50:05;;;;;;;7.00;3.30;;;;;;;-1.92;79.34;101140.50;107063;1273;22543;-87
2024/01/12 00:58:09;;;;;;;7.40;3.40;;;;;;;-1.98;78.89;101158.85;109712;1284;22577;-87
2024/01/12 01:00:58;;;;;;;7.30;3.80;;;;;;;-2.03;78.33;101166.01;109653;1290;22183;-86
2024/01/12 01:03:48;;;;;;;6.10;3.00;;;;;;;-2.05;77.94;101172.25;109568;1291;22568;-86
2024/01/12 01:06:49;;;;;;;4.30;2.80;;;;;;;-2.07;77.79;101179.60;109523;1288;22656;-86
2024/01/12 01:09:37;;;;;;;4.00;2.70;;;;;;;-2.12;77.01;101181.40;109468;1287;22554;-86
2024/01/12 01:12:27;;;;;;;8.90;3.10;;;;;;;-2.19;76.53;101177.73;108987;1291;22578;-85
2024/01/12 01:21:18;;;;;;;3.50;2.10;;;;;;;-2.26;75.56;101189.80;104945;1306;545986;-85
2024/01/12 01:23:47;;;;;;;3.90;2.80;;;;;;;-2.35;75.15;101190.69;106673;1289;22551;-85
2024/01/12 01:26:55;;;;;;;5.70;2.80;;;;;;;-2.36;75.19;101187.67;106034;1294;22550;-85
2024/01/12 01:36:06;;;;;;;3.60;2.30;;;;;;;-2.44;74.36;101213.95;104315;1312;545562;-84
2024/01/12 01:39:16;;;;;;;6.00;2.70;;;;;;;-2.49;74.26;101224.58;106820;1288;26725;-87
2024/01/12 01:42:24;;;;;;;4.70;2.30;;;;;;;-2.55;73.83;101233.70;106495;1294;22647;-87
2024/01/12 01:45:46;;;;;;;5.20;2.60;;;;;;;-2.65;73.49;101240.23;106534;1294;22544;-86
2024/01/12 01:49:40;;;;;;;3.70;2.30;;;;;;;-2.73;73.34;101247.84;102540;1291;5442326;-87
2024/01/12 01:59:20;;;;;;;3.90;1.90;;;;;;;-2.88;72.82;101256.08;104527;1305;545342;-86
2024/01/12 02:02:46;;;;;;;3.30;1.90;;;;;;;-2.97;72.43;101246.10;106803;1286;23048;-85
2024/01/12 02:06:17;;;;;;;3.20;2.00;;;;;;;-3.04;72.51;101248.27;107591;1286;23893;-85
2024/01/12 02:09:08;;;;;;;3.30;2.20;;;;;;;-3.01;72.52;101253.48;107159;1292;22563;-85
2024/01/12 02:12:04;;;;;;;2.40;2.00;;;;;;;-3.04;72.16;101262.39;105986;1290;1375414;-84
2024/01/12 02:15:42;;;;;;;4.20;2.00;;;;;;;-3.13;71.99;101255.86;106910;1287;23374;-84
2024/01/12 02:19:03;;;;;;;3.80;2.00;;;;;;;-3.14;72.35;101252.17;107900;1292;22562;-85
2024/01/12 02:22:47;;;;;;;2.10;1.70;;;;;;;-3.14;72.15;101251.85;107142;1302;25437;-86
2024/01/12 02:25:37;;;;;;;4.00;2.30;;;;;;;-3.16;71.82;101254.77;105770;1307;25555;-84
2024/01/12 02:28:14;;;;;;;3.10;2.20;;;;;;;-3.23;71.71;101261.09;105311;1307;24102;-84
2024/01/12 02:30:44;;;;;;;3.90;2.00;;;;;;;-3.29;71.70;101265.21;104846;1307;22588;-82
2024/01/12 02:33:12;;;;;;;3.40;1.90;;;;;;;-3.33;71.72;101271.66;105149;1303;22607;-84
2024/01/12 02:43:01;;;;;;;3.30;2.10;;;;;;;-3.33;71.36;101283.08;104262;1312;557660;-84
2024/01/12 02:45:38;;;;;;;4.00;2.10;;;;;;;-3.41;71.09;101281.71;106733;1283;22488;-84
2024/01/12 02:48:07;;;;;;;3.70;2.20;;;;;;;-3.42;71.22;101276.44;107030;1286;24302;-83
2024/01/12 02:51:15;;;;;;;2.90;2.20;;;;;;;-3.45;70.96;101270.92;107726;1276;22879;-84
2024/01/12 02:53:44;;;;;;;3.60;2.20;;;;;;;-3.46;70.97;101271.27;110514;1276;22369;-86
2024/01/12 02:56:14;;;;;;;4.20;2.10;;;;;;;-3.49;70.70;101271.20;108807;1273;2201760;-84
2024/01/12 02:58:46;;;;;;;2.20;2.00;;;;;;;-3.49;71.02;101276.61;110642;1273;22098;-86
2024/01/12 03:01:13;;;;;;;2.20;1.70;;;;;;;-3.46;71.00;101276.60;110114;1279;22110;-85
2024/01/12 03:03:41;;;;;;;3.20;1.90;;;;;;;-3.47;70.69;101277.19;110211;1278;22173;-86
2024/01/12 03:06:11;;;;;;;3.40;2.10;;;;;;;-3.49;70.43;101275.90;109903;1285;22278;-85
2024/01/12 03:08:42;;;;;;;2.40;2.00;;;;;;;-3.48;70.43;101279.04;109966;1283;22349;-85
2024/01/12 03:11:17;;;;;;;2.30;1.90;;;;;;;-3.51;70.22;101284.20;109958;1285;22158;-85
2024/01/12 03:13:48;;;;;;;3.70;2.10;;;;;;;-3.54;69.84;101285.21;109970;1285;22245;-84
2024/01/12 03:16:32;;;;;;;;;;;;;;;;;;;;;
2024/01/12 03:19:07;;;;;;;3.80;1.80;;;;;;;-3.60;69.48;101283.63;109294;1290;22165;-86
2024/01/12 03:21:36;;;;;;;3.90;1.90;;;;;;;-3.55;69.72;101276.06;109432;1290;22176;-86
2024/01/12 03:24:06;;;;;;;2.80;1.80;;;;;;;-3.52;69.40;101276.92;109047;1291;22146;-86
2024/01/12 03:26:37;;;;;;;3.40;1.80;;;;;;;-3.56;68.93;101282.52;109348;1291;22120;-85
2024/01/12 03:29:09;;;;;;;3.30;2.30;;;;;;;-3.54;69.33;101281.07;109473;1291;22160;-87
2024/01/12 03:32:18;;;;;;;2.30;1.70;;;;;;;-3.54;69.26;101277.13;109345;1291;22198;-88
2024/01/12 03:35:56;;;;;;;4.30;2.00;;;;;;;-3.54;69.48;101275.08;109624;1291;22936;-87
2024/01/12 03:39:04;;;;;;;3.30;2.30;;;;;;;-3.51;69.34;101273.01;109555;1291;23083;-85
2024/01/12 03:41:35;;;;;;;3.50;2.20;;;;;;;-3.55;69.00;101276.88;109633;1285;22177;-85
2024/01/12 03:44:05;;;;;;;5.20;2.60;;;;;;;-3.66;68.56;101277.73;109480;1291;22971;-84
2024/01/12 03:46:35;;;;;;;2.40;2.00;;;;;;;-3.68;68.74;101284.66;109321;1291;22167;-85
2024/01/12 03:49:04;;;;;;;2.00;1.80;;;;;;;-3.71;68.84;101280.90;109312;1291;22959;-86
2024/01/12 03:51:32;;;;;;;3.50;2.30;;;;;;;-3.75;69.05;101279.96;109308;1291;22218;-86
2024/01/12 03:53:59;;;;;;;2.70;2.00;;;;;;;-3.76;69.10;101282.34;109319;1291;22179;-85
2024/01/12 03:56:27;;;;;;;2.70;2.00;;;;;;;-3.78;69.00;101284.94;109153;1291;22204;-84
2024/01/12 03:59:25;;;;;;;3.70;2.30;;;;;;;-3.81;69.17;101282.70;108860;1295;22244;-85
2024/01/12 04:01:54;;;;;;;4.60;2.00;;;;;;;-3.83;69.22;101287.36;109174;1290;22155;-87
2024/01/12 04:04:27;;;;;;;4.80;2.40;;;;;;;-3.86;69.05;101297.70;109482;1290;22162;-86
2024/01/12 04:06:55;;;;;;;5.50;2.70;;;;;;;-3.91;68.85;101303.21;109656;1290;22816;-87
2024/01/12 04:09:27;;;;;;;3.80;2.60;;;;;;;-3.96;68.96;101311.83;109625;1290;22709;-86
2024/01/12 04:12:19;;;;;;;5.00;3.30;;;;;;;-4.06;68.54;101310.05;109552;1290;22214;-86
2024/01/12 04:14:46;;;;;;;9.60;4.50;;;;;;;-4.14;68.64;101312.05;109432;1290;22902;-85
2024/01/12 04:17:41;;;;;;;9.80;5.20;;;;;;;-4.20;68.75;101303.44;109589;1285;22281;-86
2024/01/12 04:20:52;;;;;;;13.10;6.00;;;;;;;-4.22;68.94;101302.95;109919;1285;22133;-86
2024/01/12 04:23:40;;;;;;;12.70;5.70;;;;;;;-4.23;68.87;101307.03;109556;1290;22184;-85
2024/01/12 04:26:12;;;;;;;14.10;6.00;;;;;;;-4.29;68.75;101310.72;109593;1290;22180;-85
2024/01/12 04:28:44;;;;;;;11.40;5.30;;;;;;;-4.29;69.31;101309.55;109419;1290;22148;-88
2024/01/12 04:31:34;;;;;;;12.50;6.00;;;;;;;-4.25;69.02;101309.82;109403;1290;22201;-86
2024/01/12 04:34:26;;;;;;;10.10;4.70;;;;;;;-4.25;69.26;101305.55;109632;1290;22255;-86
2024/01/12 04:37:21;;;;;;;9.10;4.20;;;;;;;-4.19;69.53;101304.19;109573;1290;23058;-86
2024/01/12 04:40:29;;;;;;;8.60;4.50;;;;;;;-4.14;69.30;101309.14;109649;1290;22166;-85
2024/01/12 04:43:20;;;;;;;8.90;4.50;;;;;;;-4.15;69.02;101305.64;109862;1285;22872;-87
2024/01/12 04:46:37;;;;;;;9.30;4.20;;;;;;;-4.20;68.85;101314.43;109908;1285;22109;-85
2024/01/12 04:49:29;;;;;;;6.10;3.90;;;;;;;-4.23;68.72;101316.14;109994;1286;22134;-85
2024/01/12 04:54:06;;;;;;;10.10;4.30;;;;;;;-4.28;68.49;101318.36;106010;1305;545140;-85
2024/01/12 04:56:35;;;;;;;6.20;3.10;;;;;;;-4.38;68.18;101324.29;106206;1292;24098;-86
2024/01/12 04:59:25;;;;;;;6.70;3.40;;;;;;;-4.41;68.34;101326.84;106756;1285;23440;-86
2024/01/12 05:01:55;;;;;;;5.40;3.00;;;;;;;-4.45;68.24;101327.11;106490;1285;22556;-84
2024/01/12 05:04:24;;;;;;;6.80;3.80;;;;;;;-4.51;68.12;101324.75;106566;1285;24570;-84
2024/01/12 05:06:52;;;;;;;6.70;3.90;;;;;;;-4.53;68.30;101322.27;106195;1283;387029;-84
2024/01/12 05:09:21;;;;;;;9.10;5.30;;;;;;;-4.60;68.35;101319.07;107108;1283;22584;-84
2024/01/12 05:11:49;;;;;;;9.70;4.20;;;;;;;-4.58;68.69;101319.02;106502;1267;25627;-84
2024/01/12 05:14:17;;;;;;;9.20;4.60;;;;;;;-4.60;68.41;101323.71;106119;1287;24951;-86
2024/01/12 05:17:39;;;;;;;6.30;4.20;;;;;;;-4.63;68.42;101322.96;106365;1287;22661;-86
2024/01/12 05:20:28;;;;;;;7.50;4.10;;;;;;;-4.68;68.44;101320.41;106505;1281;22536;-86
2024/01/12 05:22:57;;;;;;;6.50;3.60;;;;;;;-4.65;68.51;101322.30;106530;1284;22569;-88
2024/01/12 05:25:35;;;;;;;6.80;3.80;;;;;;;-4.69;68.34;101322.20;106666;1284;22838;-87
2024/01/12 05:28:39;;;;;;;6.80;4.10;;;;;;;-4.69;68.46;101328.07;106805;1285;22517;-86
2024/01/12 05:31:10;;;;;;;8.50;4.30;;;;;;;-4.69;68.71;101328.95;106926;1284;25419;-87
2024/01/12 05:33:38;;;;;;;8.00;4.50;;;;;;;-4.63;68.93;101329.70;106605;1282;24317;-85
2024/01/12 05:36:08;;;;;;;8.90;4.10;;;;;;;-4.60;68.80;101332.44;106414;1286;22645;-86
2024/01/12 05:38:36;;;;;;;10.10;4.70;;;;;;;-4.62;68.45;101327.15;106469;1286;25940;-86
2024/01/12 05:41:06;;;;;;;8.70;4.60;;;;;;;-4.65;68.54;101325.09;106811;1278;22675;-87
2024/01/12 05:43:36;;;;;;;7.20;3.60;;;;;;;-4.60;68.56;101326.23;106785;1282;22633;-84
2024/01/12 05:46:06;;;;;;;7.10;4.00;;;;;;;-4.61;68.46;101326.36;106800;1282;22537;-84
2024/01/12 05:48:34;;;;;;;6.00;3.80;;;;;;;-4.64;68.40;101321.88;106708;1282;24484;-87
2024/01/12 05:51:04;;;;;;;8.80;4.60;;;;;;;-4.69;68.76;101316.70;106320;1287;25354;-87
2024/01/12 05:53:32;;;;;;;7.90;4.60;;;;;;;-4.66;69.06;101315.20;106572;1283;26128;-84
2024/01/12 05:56:00;;;;;;;6.80;4.20;;;;;;;-4.58;69.51;101319.87;108375;1289;22551;-85
2024/01/12 05:58:27;;;;;;;6.30;4.00;;;;;;;-4.51;69.14;101319.45;109349;1287;22568;-84
2024/01/12 06:00:57;;;;;;;8.10;4.10;;;;;;;-4.54;68.81;101313.77;109393;1287;23762;-86
2024/01/12 06:03:50;;;;;;;9.00;4.10;;;;;;;-4.58;68.85;101311.61;109380;1288;22547;-82
2024/01/12 06:06:17;;;;;;;6.00;4.00;;;;;;;-4.58;69.07;101311.23;109227;1287;22527;-84
2024/01/12 06:08:48;;;;;;;6.60;4.40;;;;;;;-4.56;69.16;101313.59;109465;1283;23195;-82
2024/01/12 06:11:50;;;;;;;7.50;4.50;;;;;;;-4.52;69.32;101316.46;109698;1280;22533;-83
2024/01/12 06:14:17;;;;;;;11.10;5.30;;;;;;;-4.50;69.08;101315.70;109912;1273;22546;-84
2024/01/12 06:17:09;;;;;;;8.10;4.60;;;;;;;-4.47;69.25;101308.75;108837;1278;23906;-85
2024/01/12 06:24:59;;;;;;;8.90;5.10;;;;;;;-4.31;69.24;101299.13;107430;1283;25081;-85
2024/01/12 06:31:45;;;;;;;8.70;4.50;;;;;;;-4.28;69.13;101300.85;108353;1283;24319;-85
2024/01/12 06:38:52;;;;;;;8.70;4.30;;;;;;;-4.20;69.43;101302.40;108911;1274;22778;-86
2024/01/12 06:41:52;;;;;;;8.10;4.30;;;;;;;-4.20;69.41;101298.43;108322;1277;25371;-85
2024/01/12 06:44:20;;;;;;;9.10;4.60;;;;;;;-4.28;69.33;101294.33;108623;1274;22615;-85
2024/01/12 06:46:50;;;;;;;12.40;5.00;;;;;;;-4.36;69.23;101298.47;107604;1274;25271;-86
2024/01/12 06:49:19;;;;;;;8.70;4.50;;;;;;;-4.40;69.54;101301.76;108507;1275;22537;-86
2024/01/12 06:55:28;;;;;;;6.70;4.40;;;;;;;-4.32;69.80;101304.51;110775;1256;24359;-90
2024/01/12 06:59:46;;;;;;;9.60;4.90;;;;;;;-4.32;70.04;101307.83;107315;1292;23052;-90
2024/01/12 07:04:05;;;;;;;7.40;4.50;;;;;;;-4.18;69.94;101309.93;107220;1300;22997;-90
2024/01/12 07:08:39;;;;;;;;;;;;;;;;;;;;;
2024/01/12 07:12:55;;;;;;;8.00;4.00;;;;;;;-4.26;69.83;101325.60;106223;1310;25424;-90
2024/01/12 07:16:57;;;;;;;;;;;;;;;;;;;;;
2024/01/12 07:20:45;;;;;;;;;;;;;;;;;;;;;
2024/01/12 07:41:53;;;;;;;;;;;;;;;;;;;;;
2024/01/12 07:46:06;;;;;;;6.90;5.60;;;;;;;-4.32;69.77;101320.35;108524;1303;22207;-90
2024/01/12 07:49:45;;;;;;;;;;;;;;;;;;;;;
2024/01/12 07:57:36;;;;;;;7.70;4.80;;;;;;;-4.33;70.37;101302.76;110224;1280;22428;-89
2024/01/12 08:01:57;;;;;;;7.90;5.50;;;;;;;-4.32;70.39;101300.09;110229;1280;22068;-88
2024/01/12 08:22:33;;;;;;;13.40;8.50;;;;;;;-4.01;70.48;101279.55;109978;1282;22272;-92
2024/01/12 08:31:58;;;;;;;12.30;7.80;;;;;;;-4.11;70.18;101283.69;85926;1288;26830;-90
2024/01/12 08:45:15;;;;;;;17.60;8.80;;;;;;;-4.05;69.72;101273.23;107489;1310;22525;-90
2024/01/12 08:49:00;;;;;;;16.40;10.30;;;;;;;-4.11;69.79;101279.92;108047;1295;22577;-91
2024/01/12 08:53:03;;;;;;;14.10;9.30;;;;;;;-4.12;70.18;101273.12;107635;1294;22557;-92
2024/01/12 09:04:22;;;;;;;16.00;9.60;;;;;;;-4.10;70.22;101269.13;109394;1279;22440;31
2024/01/12 09:16:55;;;;;;;15.60;8.80;;;;;;;-3.86;70.08;101252.61;108476;1265;22614;-87
2024/01/12 09:26:47;;;;;;;;;;;;;;;;;;;;;
2024/01/12 09:50:21;;;;;;;18.20;11.60;;;;;;;-3.74;69.43;101202.23;86400;1286;22700;-92
2024/01/12 09:53:48;;;;;;;20.30;12.90;;;;;;;-3.76;69.97;101200.38;107977;1294;22529;-83
2024/01/12 09:56:56;;;;;;;19.00;12.50;;;;;;;-3.72;70.02;101194.91;107604;1289;22509;-92
2024/01/12 10:01:10;;;;;;;17.30;11.10;;;;;;;-3.75;70.13;101193.70;107792;1301;22273;-92
2024/01/12 10:04:38;;;;;;;15.90;11.00;;;;;;;-3.70;69.79;101186.92;110159;1269;22900;-91
2024/01/12 10:11:34;;;;;;;16.00;9.80;;;;;;;-3.76;69.90;101186.63;109010;1293;22239;-92
2024/01/12 10:14:11;;;;;;;19.10;12.10;;;;;;;-3.76;69.50;101193.86;109151;1295;22274;-89
2024/01/12 10:17:02;;;;;;;20.20;12.30;;;;;;;-3.76;69.73;101181.10;108971;1293;22232;-88
2024/01/12 10:19:31;;;;;;;15.50;10.50;;;;;;;-3.73;69.88;101173.34;108925;1288;22298;-88
2024/01/12 10:22:00;;;;;;;15.20;10.40;;;;;;;-3.70;69.52;101157.52;109076;1293;22203;-91
2024/01/12 10:24:34;;;;;;;15.90;10.70;;;;;;;-3.63;69.64;101156.55;109179;1294;22147;-88
2024/01/12 10:27:31;;;;;;;15.50;9.20;;;;;;;-3.56;69.38;101162.98;109375;1291;22969;-89
2024/01/12 10:30:30;;;;;;;16.20;10.40;;;;;;;-3.38;69.49;101157.33;109113;1294;22612;-95
2024/01/12 10:50:09;;;;;;;15.20;8.80;;;;;;;-2.30;67.06;101128.48;105037;1271;5004621;-87
2024/01/12 10:53:21;;;;;;;11.40;8.40;;;;;;;-2.19;66.92;101139.45;106680;1293;25298;-84
2024/01/12 10:56:58;;;;;;;11.90;8.90;;;;;;;-2.05;66.03;101131.02;107415;1291;22560;-88
2024/01/12 10:59:28;;;;;;;12.10;9.10;;;;;;;-2.01;66.39;101124.17;106407;1293;22525;-85
2024/01/12 11:02:16;;;;;;;12.20;8.90;;;;;;;-1.93;66.14;101120.08;106263;1292;22595;-87
2024/01/12 11:06:00;;;;;;;13.70;9.80;;;;;;;-1.86;66.10;101117.88;105576;1301;546331;-88
2024/01/12 11:08:40;;;;;;;12.90;9.70;;;;;;;-1.89;65.94;101109.78;108498;1280;22546;-88
2024/01/12 11:11:49;;;;;;;13.00;8.90;;;;;;;-1.77;66.59;101104.01;108557;1279;22282;-88
2024/01/12 11:14:26;;;;;;;16.60;10.70;;;;;;;-1.78;65.65;101095.19;108725;1285;22506;-88
2024/01/12 11:16:55;;;;;;;12.70;9.70;;;;;;;-1.75;66.29;101098.93;108124;1286;25320;-86
2024/01/12 11:19:46;;;;;;;16.40;11.50;;;;;;;-1.64;66.31;101092.25;102463;1289;8532176;-91
2024/01/12 11:23:21;;;;;;;17.00;11.60;;;;;;;-1.61;65.70;101094.32;109283;1289;22708;-91
2024/01/12 11:29:44;;;;;;;16.80;11.00;;;;;;;-1.63;66.00;101079.02;109486;1264;22671;-86
2024/01/12 11:59:03;;;;;;;15.80;10.30;;;;;;;-2.29;66.19;101042.93;109373;1269;22252;-91
2024/01/12 12:06:52;;;;;;;17.70;9.40;;;;;;;-2.20;66.72;101016.97;109072;1288;22672;-93
2024/01/12 12:10:47;;;;;;;10.70;7.40;;;;;;;-2.29;65.52;101005.70;108000;1292;24168;-85
2024/01/12 12:13:42;;;;;;;15.80;9.50;;;;;;;-2.45;65.36;100996.41;106959;1297;22514;-89
2024/01/12 12:16:12;;;;;;;;;;;;;;;-2.53;65.96;100981.67;105954;1303;22544;-90
2024/01/12 12:18:54;;;;;;;14.60;9.30;;;;;;;-2.59;66.22;100975.31;107754;1309;22186;-92
2024/01/12 12:21:22;;;;;;;13.70;8.70;;;;;;;-2.68;66.13;100974.30;107641;1309;22283;-91
2024/01/12 12:23:52;;;;;;;14.50;10.10;;;;;;;-2.71;66.26;100968.62;107848;1309;22232;-90
2024/01/12 12:26:19;;;;;;;16.00;10.70;;;;;;;-2.78;66.31;100963.25;107870;1310;22224;-90
2024/01/12 12:28:47;;;;;;;16.30;11.30;;;;;;;-2.76;66.97;100967.52;107719;1304;22193;-90
2024/01/12 12:31:16;;;;;;;15.60;10.50;;;;;;;-2.71;67.00;100956.54;107663;1309;22169;-88
2024/01/12 12:33:45;;;;;;;15.40;9.20;;;;;;;-2.73;66.70;100950.75;107570;1307;22229;-88
2024/01/12 12:36:15;;;;;;;16.20;9.20;;;;;;;-2.71;66.89;100935.33;107762;1301;23088;-89
2024/01/12 12:38:43;;;;;;;14.80;9.40;;;;;;;-2.74;66.55;100919.48;109020;1294;22935;-85
2024/01/12 12:41:12;;;;;;;16.50;8.90;;;;;;;-2.82;66.60;100906.30;108834;1294;23111;-83
2024/01/12 12:43:44;;;;;;;14.20;9.30;;;;;;;-2.87;66.74;100896.04;109123;1294;23032;-85
2024/01/12 12:46:16;;;;;;;12.60;8.20;;;;;;;-2.84;67.34;100884.84;108693;1299;22206;-90
2024/01/12 12:48:45;;;;;;;15.80;8.80;;;;;;;-2.82;67.54;100875.65;108810;1298;22336;-91
2024/01/12 12:51:14;;;;;;;13.60;7.90;;;;;;;-2.85;67.99;100874.61;108183;1304;22197;-90
2024/01/12 12:53:44;;;;;;;12.00;8.40;;;;;;;-2.83;67.84;100869.73;107659;1305;23227;-89
2024/01/12 12:56:12;;;;;;;11.00;6.20;;;;;;;-2.77;68.07;100860.05;107074;1311;22243;-88
2024/01/12 12:58:40;;;;;;;12.20;8.70;;;;;;;-2.74;68.15;100857.09;107074;1315;22224;-87
2024/01/12 13:01:11;;;;;;;16.60;9.60;;;;;;;-2.73;68.09;100853.00;107253;1310;22305;-89
2024/01/12 13:04:21;;;;;;;13.00;7.90;;;;;;;-2.71;68.12;100850.70;107351;1311;23100;-90
2024/01/12 13:07:16;;;;;;;11.50;7.20;;;;;;;-2.70;68.19;100838.00;107232;1315;22222;-89
2024/01/12 13:14:19;;;;;;;12.60;8.20;;;;;;;-2.61;68.05;100823.27;106037;1314;545074;-90
2024/01/12 13:17:45;;;;;;;12.10;8.10;;;;;;;-2.60;68.25;100812.98;109282;1290;23699;-87
2024/01/12 13:21:34;;;;;;;13.80;7.80;;;;;;;-2.60;68.65;100822.63;109515;1290;22672;-87
2024/01/12 13:25:06;;;;;;;14.20;8.10;;;;;;;-2.59;68.98;100821.80;108940;1283;22663;-91
2024/01/12 13:27:37;;;;;;;14.70;7.90;;;;;;;-2.64;69.37;100817.23;108092;1284;706030;-90
2024/01/12 13:30:22;;;;;;;11.70;7.70;;;;;;;-2.64;69.59;100816.91;109793;1289;22323;-89
2024/01/12 13:32:55;;;;;;;13.70;8.20;;;;;;;-2.61;69.96;100812.07;109044;1294;22166;-92
2024/01/12 13:35:42;;;;;;;14.40;8.70;;;;;;;-2.52;70.21;100807.19;109175;1294;22460;-90
2024/01/12 13:38:32;;;;;;;12.50;7.90;;;;;;;-2.46;70.66;100798.30;109650;1283;22243;-92
2024/01/12 13:41:46;;;;;;;15.20;9.70;;;;;;;-2.48;71.22;100780.13;109218;1289;23048;-91
2024/01/12 13:45:00;;;;;;;14.40;8.50;;;;;;;-2.52;71.90;100778.35;109157;1296;22268;-90
2024/01/12 13:48:14;;;;;;;20.40;10.20;;;;;;;-2.46;72.17;100770.03;109359;1292;22156;-90
2024/01/12 13:50:51;;;;;;;15.00;9.20;;;;;;;-2.44;72.54;100768.02;109791;1288;22176;-90
2024/01/12 13:54:18;;;;;;;14.70;8.70;;;;;;;-2.43;72.83;100767.73;108140;1302;22250;-90
2024/01/12 13:57:36;;;;;;;16.60;10.40;;;;;;;-2.43;73.42;100758.78;107173;1318;23052;-88
2024/01/12 14:00:45;;;;;;;14.70;10.20;;;;;;;-2.44;73.86;100757.34;106881;1318;22357;-90
2024/01/12 14:03:46;;;;;;;17.00;10.10;;;;;;;-2.45;74.43;100755.39;106817;1321;23015;-90
2024/01/12 14:06:25;;;;;;;19.20;11.30;;;;;;;-2.40;74.77;100744.46;106751;1320;22236;-90
2024/01/12 14:08:53;;;;;;;14.30;9.80;;;;;;;-2.31;75.72;100736.26;106742;1320;22213;-84
2024/01/12 14:11:22;;;;;;;18.80;11.70;;;;;;;-2.26;75.93;100720.82;106849;1320;22279;-89
2024/01/12 14:14:01;;;;;;;13.30;8.60;;;;;;;-2.22;75.63;100726.86;106919;1314;23183;-87
2024/01/12 14:16:39;;;;;;;14.10;9.60;;;;;;;-2.22;75.63;100719.60;106865;1314;22219;-89
2024/01/12 14:19:29;;;;;;;11.50;8.00;;;;;;;-2.19;75.98;100717.13;106966;1320;22148;-89
2024/01/12 14:22:41;;;;;;;16.00;10.50;;;;;;;-2.19;76.60;100706.81;107254;1315;22409;-87
2024/01/12 14:25:13;;;;;;;19.90;11.80;;;;;;;-2.16;77.16;100693.15;107176;1312;22289;-87
2024/01/12 14:27:44;;;;;;;15.90;11.00;;;;;;;-2.17;78.96;100691.34;107238;1314;22179;-91
2024/01/12 14:30:13;;;;;;;18.80;10.00;;;;;;;-2.19;81.33;100687.45;107238;1314;22242;-89
2024/01/12 14:32:47;;;;;;;16.00;10.80;;;;;;;-2.16;81.30;100686.73;107214;1316;22334;-90
2024/01/12 14:35:52;;;;;;;18.30;11.00;;;;;;;-2.14;81.09;100678.90;106749;1321;22416;-92
2024/01/12 14:38:43;;;;;;;15.30;10.20;;;;;;;-2.11;81.13;100674.90;106337;1323;22311;-88
2024/01/12 14:41:19;;;;;;;17.20;10.60;;;;;;;-2.14;81.51;100666.32;105707;1331;22222;-90
2024/01/12 14:43:48;;;;;;;;;;;;;;;-2.16;82.35;100663.80;105238;1335;23363;-93
2024/01/12 14:46:15;;;;;;;15.80;11.20;;;;;;;-2.18;82.69;100659.23;105208;1335;22306;-88
2024/01/12 14:48:43;;;;;;;18.40;12.00;;;;;;;-2.19;83.90;100653.81;105073;1335;22323;-91
2024/01/12 14:51:13;;;;;;;19.40;12.00;;;;;;;-2.19;83.83;100653.67;105129;1335;22344;-89
2024/01/12 14:53:44;;;;;;;17.70;12.30;;;;;;;-2.21;84.23;100639.27;105246;1335;22515;-90
2024/01/12 14:56:20;;;;;;;23.90;14.20;;;;;;;-2.19;84.63;100652.45;105091;1335;22219;-87
2024/01/12 14:58:54;;;;;;;20.70;13.10;;;;;;;-2.16;85.12;100637.42;105350;1323;22444;-89
2024/01/12 15:01:43;;;;;;;21.80;13.80;;;;;;;-2.16;86.68;100641.36;106340;1326;23069;-88
2024/01/12 15:07:39;;;;;;;17.80;12.20;;;;;;;-2.11;86.85;100644.02;107012;1308;558001;-88
2024/01/12 15:11:44;;;;;;;;;;;;;;;;;;;;;
2024/01/12 15:15:00;;;;;;;23.70;16.10;;;;;;;-2.12;87.52;100643.63;109345;1295;22575;-91
2024/01/12 15:17:37;;;;;;;26.40;17.30;;;;;;;-2.11;88.07;100641.61;108590;1294;22705;-78
2024/01/12 15:20:07;;;;;;;24.90;17.60;;;;;;;-2.09;88.23;100635.14;106958;1293;265793;-80
2024/01/12 15:22:34;;;;;;;22.90;16.70;;;;;;;-2.08;89.22;100633.98;107474;1293;22688;-81
2024/01/12 15:25:00;;;;;;;31.80;17.90;;;;;;;-2.10;90.96;100632.33;106747;1299;22595;-81
2024/01/12 15:27:27;;;;;;;23.90;18.00;;;;;;;-2.12;93.53;100623.09;106077;1296;22631;-78
2024/01/12 15:29:53;;;;;;;24.10;16.80;;;;;;;-2.13;94.33;100621.33;106227;1293;24231;-81
2024/01/12 15:32:20;;;;;;;25.10;18.80;;;;;;;-2.12;94.79;100613.23;106194;1293;22629;-81
2024/01/12 15:34:46;;;;;;;25.60;19.20;;;;;;;-2.10;94.34;100613.36;106694;1292;22609;-81
2024/01/12 15:37:15;;;;;;;25.20;18.00;;;;;;;-2.09;94.14;100608.05;107750;1287;22882;-83
2024/01/12 15:43:01;;;;;;;25.90;19.80;;;;;;;-1.98;92.77;100600.42;106173;1305;557663;-87
2024/01/12 15:45:34;;;;;;;27.10;18.20;;;;;;;-1.97;91.81;100590.27;106566;1285;23951;-88
2024/01/12 15:48:01;;;;;;;24.00;17.30;;;;;;;-1.95;91.34;100585.72;106888;1288;22541;-87
2024/01/12 15:50:28;;;;;;;28.50;18.90;;;;;;;-1.92;90.66;100577.22;107222;1276;22940;-86
2024/01/12 15:52:58;;;;;;;28.00;20.60;;;;;;;-1.90;90.28;100577.67;110139;1276;22232;-89
2024/01/12 15:55:24;;;;;;;27.50;19.80;;;;;;;-1.88;89.87;100583.95;110055;1274;257300;-87
2024/01/12 15:57:51;;;;;;;27.50;19.30;;;;;;;-1.85;89.80;100569.38;110556;1274;22431;-86
2024/01/12 16:00:18;;;;;;;28.20;19.70;;;;;;;-1.82;90.53;100563.98;110355;1274;22969;-84
2024/01/12 16:02:45;;;;;;;26.90;19.80;;;;;;;-1.78;90.54;100563.52;110394;1274;22203;-87
2024/01/12 16:05:12;;;;;;;29.50;19.10;;;;;;;-1.75;90.42;100579.67;110374;1274;22339;-86
2024/01/12 16:07:40;;;;;;;29.20;19.90;;;;;;;-1.76;90.29;100572.05;110449;1274;22962;-86
2024/01/12 16:10:10;;;;;;;30.10;20.60;;;;;;;-1.73;90.34;100570.77;110398;1269;22310;-85
2024/01/12 16:12:37;;;;;;;28.00;20.30;;;;;;;-1.73;90.11;100569.23;110498;1275;22228;-87
2024/01/12 16:15:07;;;;;;;28.30;19.90;;;;;;;-1.70;90.09;100557.78;109980;1276;23160;-88
2024/01/12 16:17:39;;;;;;;24.40;19.00;;;;;;;-1.68;89.93;100554.61;109719;1281;22160;-85
2024/01/12 16:20:09;;;;;;;28.50;19.50;;;;;;;-1.67;89.62;100553.95;109615;1281;22208;-87
2024/01/12 16:22:41;;;;;;;25.80;18.60;;;;;;;-1.61;89.46;100557.80;109697;1281;22191;-89
2024/01/12 16:25:18;;;;;;;31.20;21.10;;;;;;;-1.57;89.22;100569.04;109597;1278;22423;-88
2024/01/12 16:27:49;;;;;;;27.30;19.00;;;;;;;-1.55;89.06;100562.71;109100;1293;22139;-87
2024/01/12 16:30:22;;;;;;;26.00;20.10;;;;;;;-1.53;89.22;100564.35;108970;1294;23094;-87
2024/01/12 16:32:52;;;;;;;25.10;18.80;;;;;;;-1.52;89.07;100557.68;109125;1287;22192;-88
2024/01/12 16:35:34;;;;;;;24.40;19.80;;;;;;;-1.47;88.97;100547.68;109666;1282;22373;-88
2024/01/12 16:38:23;;;;;;;25.30;18.50;;;;;;;-1.47;88.77;100551.84;109668;1285;22146;-88
2024/01/12 16:40:53;;;;;;;25.80;17.60;;;;;;;-1.46;88.77;100550.52;109124;1286;22406;-88
2024/01/12 16:43:26;;;;;;;26.10;19.40;;;;;;;-1.45;88.66;100549.36;109499;1280;22384;-88
2024/01/12 16:45:53;;;;;;;25.90;19.50;;;;;;;-1.42;88.69;100536.34;109840;1274;22389;-87